Time;durP1;ratioP1;P1;durP2;ratioP2;P2;SDS_P1;SDS_P2;PMS_P1;PMS_P2;Temp;Humidity;BMP_temperature;BMP_pressure;BME280_temperature;BME280_humidity;BME280_pressure;Samples;Min_cycle;Max_cycle;Signal;HPM_P1;HPM_P2
2023/05/21 00:00:11;;;;;;;8.43;6.07;;;;;;;16.13;38.30;101295.56;5003116;28;20521;-70
2023/05/21 00:02:39;;;;;;;8.25;5.55;;;;;;;16.10;38.23;101293.09;5005298;28;20076;-70
2023/05/21 00:05:10;;;;;;;7.70;5.43;;;;;;;16.12;38.00;101293.81;5003409;28;20046;-70
2023/05/21 00:07:42;;;;;;;8.95;6.07;;;;;;;16.12;38.43;101291.06;4984381;28;20141;-70
2023/05/21 00:10:11;;;;;;;8.98;5.80;;;;;;;16.10;37.84;101293.97;5004425;28;20058;-70
2023/05/21 00:12:40;;;;;;;7.70;5.38;;;;;;;16.11;37.83;101292.09;5003513;28;20129;-70
2023/05/21 00:15:09;;;;;;;6.75;4.88;;;;;;;16.12;37.96;101288.31;5006400;28;20130;-70
2023/05/21 00:17:38;;;;;;;7.72;5.55;;;;;;;16.11;38.34;101292.09;4990088;28;20100;-70
2023/05/21 00:20:08;;;;;;;8.18;4.97;;;;;;;16.12;37.74;101278.13;5001873;28;20140;-70
2023/05/21 00:22:36;;;;;;;7.57;5.07;;;;;;;16.10;37.83;101276.53;5005753;28;20046;-70
2023/05/21 00:25:06;;;;;;;6.75;5.25;;;;;;;16.11;37.78;101275.50;5002022;28;20454;-70
2023/05/21 00:27:34;;;;;;;7.40;4.88;;;;;;;16.08;37.74;101275.84;5005145;28;20041;-70
2023/05/21 00:30:02;;;;;;;7.97;5.13;;;;;;;16.07;38.27;101276.88;4982026;28;20193;-70
2023/05/21 00:32:30;;;;;;;6.65;4.80;;;;;;;16.06;37.83;101276.00;5005276;28;20472;-70
2023/05/21 00:34:58;;;;;;;7.15;4.97;;;;;;;16.05;38.18;101267.88;4990892;28;20053;-70
2023/05/21 00:37:28;;;;;;;7.13;4.63;;;;;;;16.05;37.78;101265.13;5005161;28;20057;-69
2023/05/21 00:39:59;;;;;;;6.05;4.68;;;;;;;16.01;38.38;101271.97;4984828;28;20125;-70
2023/05/21 00:42:29;;;;;;;6.22;4.60;;;;;;;16.05;37.81;101267.88;4987231;28;20054;-70
2023/05/21 00:44:57;;;;;;;6.72;4.78;;;;;;;16.03;38.36;101268.03;5002249;28;20045;-70
2023/05/21 00:47:28;;;;;;;6.15;4.45;;;;;;;16.03;37.93;101262.50;5004215;28;20080;-70
2023/05/21 00:49:56;;;;;;;7.20;5.10;;;;;;;16.03;38.31;101257.00;5001807;28;20054;-70
2023/05/21 00:52:25;;;;;;;6.70;4.72;;;;;;;16.04;38.12;101261.50;5005412;28;20038;-70
2023/05/21 00:54:53;;;;;;;6.82;4.63;;;;;;;16.04;38.36;101260.63;5003313;28;20069;-70
2023/05/21 00:57:25;;;;;;;6.32;4.72;;;;;;;16.06;38.02;101255.81;4990542;28;20104;-70
2023/05/21 00:59:55;;;;;;;6.85;4.88;;;;;;;16.03;37.91;101254.22;5003027;28;20068;-70
2023/05/21 01:02:24;;;;;;;6.20;4.80;;;;;;;16.04;38.00;101258.72;4986335;28;20057;-71
2023/05/21 01:04:54;;;;;;;8.15;5.03;;;;;;;16.06;38.02;101264.97;5002176;28;20056;-70
2023/05/21 01:07:22;;;;;;;7.05;4.68;;;;;;;16.06;37.75;101258.56;5004980;28;20541;-72
2023/05/21 01:09:50;;;;;;;7.18;4.65;;;;;;;16.06;38.17;101256.69;5001815;28;20049;-70
2023/05/21 01:12:20;;;;;;;6.63;5.03;;;;;;;16.07;38.43;101261.19;5004026;28;20132;-69
2023/05/21 01:14:49;;;;;;;6.70;5.03;;;;;;;16.06;37.83;101250.28;5002847;28;20117;-70
2023/05/21 01:17:22;;;;;;;7.50;5.15;;;;;;;16.08;37.97;101259.28;5004752;28;20073;-70
2023/05/21 01:19:53;;;;;;;7.50;5.25;;;;;;;16.07;38.28;101261.19;5000524;28;20049;-69
2023/05/21 01:22:23;;;;;;;6.30;5.03;;;;;;;16.05;37.87;101254.94;4986129;28;20456;-70
2023/05/21 01:24:54;;;;;;;7.07;4.78;;;;;;;16.07;38.20;101260.31;4984242;28;20732;-70
2023/05/21 01:27:22;;;;;;;7.18;5.10;;;;;;;16.05;38.44;101265.13;4987411;28;20127;-70
2023/05/21 01:29:50;;;;;;;6.68;4.82;;;;;;;16.04;37.97;101255.97;4986924;28;20146;-69
2023/05/21 01:32:24;;;;;;;8.00;5.43;;;;;;;16.06;38.18;101258.56;4990690;28;20125;-69
2023/05/21 01:34:59;;;;;;;7.68;5.40;;;;;;;16.05;38.05;101254.06;5006387;28;20124;-69
2023/05/21 01:37:33;;;;;;;7.30;5.32;;;;;;;16.03;38.63;101248.72;4990926;28;20096;-69
2023/05/21 01:40:11;;;;;;;6.88;5.25;;;;;;;16.03;38.32;101248.72;4982283;28;20443;-69
2023/05/21 01:42:41;;;;;;;7.85;5.57;;;;;;;16.00;38.19;101245.44;5005101;28;20048;-68
2023/05/21 01:45:10;;;;;;;6.80;5.38;;;;;;;15.98;38.40;101245.56;4987370;28;20719;-69
2023/05/21 01:47:39;;;;;;;6.95;5.50;;;;;;;15.99;38.09;101251.97;5008577;28;20052;-69
2023/05/21 01:50:09;;;;;;;8.30;5.78;;;;;;;15.97;38.07;101240.22;4980889;28;20050;-70
2023/05/21 01:52:38;;;;;;;8.25;6.00;;;;;;;15.95;38.19;101242.25;4980344;28;20516;-70
2023/05/21 01:55:08;;;;;;;7.10;5.38;;;;;;;15.95;38.17;101245.00;4988529;28;20047;-70
2023/05/21 01:57:36;;;;;;;7.38;5.35;;;;;;;15.92;38.65;101243.44;4990245;28;20046;-69
2023/05/21 02:00:06;;;;;;;7.47;5.70;;;;;;;15.93;38.40;101241.53;4988233;28;20046;-70
2023/05/21 02:02:42;;;;;;;7.43;5.30;;;;;;;15.90;38.69;101248.28;5005052;28;20485;-69
2023/05/21 02:05:10;;;;;;;8.30;5.15;;;;;;;15.89;38.57;101243.78;4985721;28;20054;-68
2023/05/21 02:07:39;;;;;;;6.63;5.25;;;;;;;15.88;38.18;101245.66;5008585;28;20120;-68
2023/05/21 02:10:09;;;;;;;7.40;5.57;;;;;;;15.89;38.44;101243.78;5005294;28;20046;-69
2023/05/21 02:12:37;;;;;;;7.88;5.53;;;;;;;15.85;38.39;101243.22;5008018;28;20563;-69
2023/05/21 02:15:06;;;;;;;7.95;5.68;;;;;;;15.86;38.65;101246.84;4997203;28;20110;-69
2023/05/21 02:17:34;;;;;;;8.45;5.30;;;;;;;15.84;38.37;101235.09;4989071;28;20468;-69
2023/05/21 02:20:10;;;;;;;7.55;5.68;;;;;;;15.83;38.62;101231.50;5004098;28;20100;-69
2023/05/21 02:22:38;;;;;;;6.60;4.93;;;;;;;15.81;38.54;101233.53;4984128;28;20072;-68
2023/05/21 02:25:09;;;;;;;6.30;4.50;;;;;;;15.82;38.51;101229.75;5009133;28;20066;-69
2023/05/21 02:27:38;;;;;;;6.57;4.78;;;;;;;15.79;38.93;101229.19;5007935;28;20064;-69
2023/05/21 02:30:08;;;;;;;7.70;5.28;;;;;;;15.77;38.62;101223.81;5003699;28;20090;-70
2023/05/21 02:32:36;;;;;;;7.97;4.70;;;;;;;15.77;38.73;101225.72;5066992;23;20389;-73
2023/05/21 02:35:04;;;;;;;6.88;4.97;;;;;;;15.74;38.30;101224.16;4995024;28;20104;-74
2023/05/21 02:37:33;;;;;;;6.20;4.82;;;;;;;15.74;38.87;101234.34;5006350;28;20042;-74
2023/05/21 02:40:04;;;;;;;8.27;5.05;;;;;;;15.73;38.92;101227.06;4989586;28;20061;-74
2023/05/21 02:42:35;;;;;;;6.40;4.63;;;;;;;15.72;38.76;101220.69;5001888;28;20200;-74
2023/05/21 02:45:03;;;;;;;6.85;4.78;;;;;;;15.69;38.90;101226.50;4990104;28;20053;-74
2023/05/21 02:47:31;;;;;;;6.80;4.70;;;;;;;15.69;38.83;101214.59;4984382;28;20050;-74
2023/05/21 02:50:00;;;;;;;5.75;4.55;;;;;;;15.69;38.76;101220.13;4983800;28;20037;-74
2023/05/21 02:52:29;;;;;;;7.28;4.85;;;;;;;15.66;38.98;101218.56;4990565;28;20053;-74
2023/05/21 02:54:57;;;;;;;6.20;4.47;;;;;;;15.66;38.70;101214.94;5005252;28;20050;-74
2023/05/21 02:57:24;;;;;;;6.75;4.75;;;;;;;15.65;39.03;101221.47;5004538;28;20081;-74
2023/05/21 02:59:54;;;;;;;6.55;4.88;;;;;;;15.65;39.16;101216.84;4985065;28;20896;-74
2023/05/21 03:02:23;;;;;;;6.93;5.13;;;;;;;15.63;38.43;101218.88;4988559;28;20480;-74
2023/05/21 03:04:51;;;;;;;6.25;4.68;;;;;;;15.61;39.14;101214.53;4980810;28;20050;-74
2023/05/21 03:07:19;;;;;;;6.18;4.63;;;;;;;15.59;38.58;101213.84;5000230;28;20054;-73
2023/05/21 03:09:47;;;;;;;6.32;4.63;;;;;;;15.59;39.11;101211.09;5004961;28;20163;-74
2023/05/21 03:12:15;;;;;;;6.63;4.63;;;;;;;15.56;39.16;101206.75;4986647;28;20417;-74
2023/05/21 03:14:45;;;;;;;6.45;4.93;;;;;;;15.55;39.19;101207.78;4987080;28;20128;-73
2023/05/21 03:17:15;;;;;;;6.30;4.60;;;;;;;15.56;39.16;101208.63;4988465;28;20412;-74
2023/05/21 03:19:44;;;;;;;7.68;4.88;;;;;;;15.52;39.14;101203.44;5006849;28;20034;-74
2023/05/21 03:22:12;;;;;;;6.97;4.80;;;;;;;15.50;38.78;101205.50;4989157;28;20492;-74
2023/05/21 03:24:41;;;;;;;6.72;5.07;;;;;;;15.50;39.29;101196.34;4982533;28;20081;-73
2023/05/21 03:27:09;;;;;;;7.03;4.88;;;;;;;15.48;39.20;101192.88;4986221;28;20041;-73
2023/05/21 03:29:38;;;;;;;6.57;4.60;;;;;;;15.48;39.06;101201.16;5007321;28;20082;-74
2023/05/21 03:32:07;;;;;;;6.65;4.60;;;;;;;15.48;39.26;101201.16;4990269;28;20052;-74
2023/05/21 03:34:37;;;;;;;7.85;4.28;;;;;;;15.47;38.88;101203.03;5006728;28;20062;-74
2023/05/21 03:37:05;;;;;;;6.35;5.00;;;;;;;15.45;39.47;101213.38;4987604;28;20064;-74
2023/05/21 03:39:34;;;;;;;6.45;4.45;;;;;;;15.45;39.45;101196.81;4984302;28;20046;-73
2023/05/21 03:42:01;;;;;;;6.25;4.47;;;;;;;15.43;38.95;101196.09;5007480;28;20781;-73
2023/05/21 03:44:44;;;;;;;6.13;4.43;;;;;;;15.39;39.48;101197.44;5004374;28;20049;-73
2023/05/21 03:47:31;;;;;;;6.57;4.75;;;;;;;15.39;39.43;101197.44;5004858;28;20136;-74
2023/05/21 03:50:02;;;;;;;6.40;4.60;;;;;;;15.40;39.55;101195.56;4999319;28;20133;-74
2023/05/21 03:52:30;;;;;;;7.65;5.38;;;;;;;15.38;39.42;101205.88;4989677;28;20060;-74
2023/05/21 03:54:58;;;;;;;6.10;4.97;;;;;;;15.37;39.10;101204.13;4986135;28;20175;-74
2023/05/21 03:57:26;;;;;;;6.57;4.18;;;;;;;15.36;39.69;101188.63;5006418;28;20042;-74
2023/05/21 03:59:54;;;;;;;10.27;5.88;;;;;;;15.35;39.83;101203.41;4989629;28;20034;-74
2023/05/21 04:02:22;;;;;;;6.28;4.95;;;;;;;15.33;39.53;101203.56;4991605;28;20042;-74
2023/05/21 04:04:52;;;;;;;7.10;4.75;;;;;;;15.33;39.43;101199.94;4985447;28;20081;-73
2023/05/21 04:07:21;;;;;;;7.18;4.68;;;;;;;15.33;39.32;101203.56;4980914;28;20073;-74
2023/05/21 04:09:49;;;;;;;6.93;4.82;;;;;;;15.30;39.81;101198.34;5003264;28;20502;-74
2023/05/21 04:12:18;;;;;;;5.72;4.45;;;;;;;15.31;39.52;101207.50;4983683;28;20065;-74
2023/05/21 04:14:47;;;;;;;5.97;4.55;;;;;;;15.30;39.78;101208.53;4987726;28;20049;-74
2023/05/21 04:17:15;;;;;;;6.05;4.55;;;;;;;15.29;39.38;101209.53;5010627;28;20128;-74
2023/05/21 04:19:44;;;;;;;6.22;4.75;;;;;;;15.28;39.46;101205.91;4981201;28;20103;-74
2023/05/21 04:22:13;;;;;;;6.47;4.68;;;;;;;15.28;39.77;101207.81;4985417;28;20050;-73
2023/05/21 04:24:42;;;;;;;5.88;4.10;;;;;;;15.29;40.13;101213.16;4998249;28;20099;-74
2023/05/21 04:27:15;;;;;;;7.88;4.57;;;;;;;15.26;39.54;101199.69;4993636;28;20057;-74
2023/05/21 04:29:44;;;;;;;5.63;4.50;;;;;;;15.27;39.77;101203.31;4993740;28;20421;-75
2023/05/21 04:32:13;;;;;;;6.10;4.70;;;;;;;15.27;39.63;101203.31;4991195;28;20042;-73
2023/05/21 04:34:41;;;;;;;5.78;4.43;;;;;;;15.27;39.60;101200.56;5004366;28;20088;-74
2023/05/21 04:37:10;;;;;;;6.75;4.65;;;;;;;15.27;40.18;101206.06;4983531;28;20096;-74
2023/05/21 04:39:39;;;;;;;7.10;5.20;;;;;;;15.27;40.00;101200.56;4991397;28;20488;-73
2023/05/21 04:42:09;;;;;;;5.97;4.68;;;;;;;15.28;39.84;101205.91;4983302;28;20050;-74
2023/05/21 04:44:39;;;;;;;6.30;4.72;;;;;;;15.27;40.18;101206.94;4981906;28;20069;-73
2023/05/21 04:47:07;;;;;;;5.88;4.68;;;;;;;15.26;40.35;101202.44;4999514;28;20041;-73
2023/05/21 04:49:36;;;;;;;5.95;4.45;;;;;;;15.26;40.21;101207.94;4988534;28;20050;-73
2023/05/21 04:52:04;;;;;;;6.15;4.65;;;;;;;15.27;39.86;101200.56;5007750;28;20041;-73
2023/05/21 04:54:32;;;;;;;6.25;4.60;;;;;;;15.27;40.53;101204.19;5017976;28;20148;-74
2023/05/21 04:57:01;;;;;;;5.97;4.75;;;;;;;15.27;39.93;101200.56;4997281;28;20048;-74
2023/05/21 04:59:31;;;;;;;6.72;4.70;;;;;;;15.29;40.16;101195.75;5005931;28;20046;-74
2023/05/21 05:01:58;;;;;;;5.75;4.38;;;;;;;15.28;40.40;101200.41;4998420;28;20524;-74
2023/05/21 05:04:27;;;;;;;6.57;4.70;;;;;;;15.28;40.67;101197.66;4981891;28;20052;-74
2023/05/21 05:06:55;;;;;;;7.07;4.63;;;;;;;15.28;40.36;101205.91;4989899;28;20049;-74
2023/05/21 05:09:23;;;;;;;6.10;4.68;;;;;;;15.29;40.62;101201.28;4985586;28;20054;-73
2023/05/21 05:11:52;;;;;;;6.35;4.30;;;;;;;15.30;40.52;101203.00;4984606;28;20052;-73
2023/05/21 05:14:20;;;;;;;6.20;4.57;;;;;;;15.30;40.50;101208.53;4989455;28;20463;-73
2023/05/21 05:16:49;;;;;;;5.57;4.25;;;;;;;15.32;40.69;101200.97;4980488;28;20054;-73
2023/05/21 05:19:17;;;;;;;6.00;4.90;;;;;;;15.31;40.08;101201.97;4993636;28;20100;-73
2023/05/21 05:21:46;;;;;;;6.28;4.30;;;;;;;15.31;40.10;101207.50;4985939;28;20448;-74
2023/05/21 05:24:15;;;;;;;6.80;4.65;;;;;;;15.31;40.23;101200.09;4989412;28;20104;-74
2023/05/21 05:26:43;;;;;;;6.40;4.63;;;;;;;15.32;40.64;101201.84;5004826;28;20497;-73
2023/05/21 05:29:11;;;;;;;6.82;5.10;;;;;;;15.32;40.83;101199.06;4989160;28;20044;-74
2023/05/21 05:31:39;;;;;;;7.35;5.40;;;;;;;15.33;40.81;101194.44;4995155;28;20095;-73
2023/05/21 05:34:08;;;;;;;6.38;5.15;;;;;;;15.33;40.62;101202.69;4981103;28;20133;-73
2023/05/21 05:36:38;;;;;;;5.97;4.40;;;;;;;15.33;40.81;101202.69;4991279;28;20065;-74
2023/05/21 05:39:06;;;;;;;6.75;5.15;;;;;;;15.33;40.75;101199.94;5009457;28;20045;-73
2023/05/21 05:41:34;;;;;;;6.57;4.70;;;;;;;15.33;40.81;101195.31;4981590;28;20042;-73
2023/05/21 05:44:02;;;;;;;6.20;4.93;;;;;;;15.34;40.47;101185.16;4992240;28;20096;-72
2023/05/21 05:46:33;;;;;;;6.60;4.75;;;;;;;15.33;40.62;101197.19;4992528;28;20081;-73
2023/05/21 05:49:01;;;;;;;6.90;5.07;;;;;;;15.32;40.54;101182.53;4997563;28;20068;-74
2023/05/21 05:51:30;;;;;;;6.95;4.65;;;;;;;15.35;40.78;101192.38;4986926;28;20052;-73
2023/05/21 05:53:59;;;;;;;7.22;4.95;;;;;;;15.34;41.19;101204.47;4989697;28;20068;-73
2023/05/21 05:56:26;;;;;;;6.57;5.05;;;;;;;15.36;41.07;101191.38;4990961;28;20057;-74
2023/05/21 05:58:54;;;;;;;6.93;5.10;;;;;;;15.37;40.84;101190.34;4989143;28;20412;-73
2023/05/21 06:01:23;;;;;;;7.07;5.53;;;;;;;15.38;40.80;101186.56;4985879;28;20049;-73
2023/05/21 06:03:51;;;;;;;5.88;4.82;;;;;;;15.40;40.89;101192.81;4984001;28;20127;-73
2023/05/21 06:06:19;;;;;;;7.05;5.03;;;;;;;15.42;41.25;101188.00;4997216;28;20049;-73
2023/05/21 06:08:49;;;;;;;6.85;4.95;;;;;;;15.46;41.24;101183.88;4990095;28;20080;-73
2023/05/21 06:11:20;;;;;;;6.35;5.20;;;;;;;15.45;41.15;101179.41;4978335;28;20045;-74
2023/05/21 06:13:48;;;;;;;6.63;5.22;;;;;;;15.46;41.36;101183.88;4990254;28;20053;-74
2023/05/21 06:16:17;;;;;;;6.57;5.25;;;;;;;15.47;41.17;101182.88;4991698;28;20136;-73
2023/05/21 06:18:45;;;;;;;6.13;5.10;;;;;;;15.48;41.31;101184.59;4989161;28;20054;-74
2023/05/21 06:21:13;;;;;;;6.25;5.20;;;;;;;15.49;41.14;101184.47;5008588;28;20147;-74
2023/05/21 06:23:41;;;;;;;7.18;5.43;;;;;;;15.50;40.86;101177.03;4992663;28;20479;-74
2023/05/21 06:26:11;;;;;;;6.68;5.40;;;;;;;15.54;40.90;101180.34;4994700;28;20578;-74
2023/05/21 06:28:40;;;;;;;7.35;5.38;;;;;;;15.52;41.14;101174.97;4992441;28;20051;-73
2023/05/21 06:31:10;;;;;;;8.07;5.63;;;;;;;15.55;40.92;101185.69;4990651;28;20386;-74
2023/05/21 06:33:39;;;;;;;7.50;5.63;;;;;;;15.59;41.08;101177.97;4989495;28;20049;-75
2023/05/21 06:36:07;;;;;;;6.40;5.50;;;;;;;15.61;41.28;101178.66;5009398;28;20042;-74
2023/05/21 06:38:35;;;;;;;6.53;5.15;;;;;;;15.64;41.69;101179.22;4994925;28;20157;-73
2023/05/21 06:41:03;;;;;;;7.22;5.55;;;;;;;15.67;41.11;101186.34;4995355;28;20056;-74
2023/05/21 06:43:47;;;;;;;8.35;5.50;;;;;;;15.69;41.77;101185.13;4986672;28;20050;-74
2023/05/21 06:46:38;;;;;;;6.72;4.88;;;;;;;15.71;41.71;101185.84;5004500;28;20049;-74
2023/05/21 06:49:08;;;;;;;7.13;5.57;;;;;;;15.79;41.80;101188.66;4994065;28;20498;-73
2023/05/21 06:51:37;;;;;;;7.53;5.43;;;;;;;15.86;41.83;101186.13;4983963;28;20496;-74
2023/05/21 06:54:05;;;;;;;6.72;5.75;;;;;;;15.93;41.50;101186.34;4983446;28;20045;-74
2023/05/21 06:56:35;;;;;;;8.48;6.03;;;;;;;15.98;41.84;101181.22;4984377;28;20085;-73
2023/05/21 06:59:04;;;;;;;9.02;5.85;;;;;;;16.06;41.25;101181.28;5007026;28;20045;-73
2023/05/21 07:01:33;;;;;;;7.80;5.93;;;;;;;16.11;41.19;101187.16;4984727;28;20693;-74
2023/05/21 07:04:02;;;;;;;6.80;5.05;;;;;;;16.19;41.73;101184.47;4979386;28;20053;-74
2023/05/21 07:06:30;;;;;;;6.47;5.38;;;;;;;16.26;41.77;101180.91;4984180;28;20645;-74
2023/05/21 07:08:58;;;;;;;7.50;5.53;;;;;;;16.34;41.46;101184.72;4985796;28;20049;-74
2023/05/21 07:11:27;;;;;;;7.30;5.60;;;;;;;;;;4991291;28;20734;-74
2023/05/21 07:13:59;;;;;;;7.05;5.60;;;;;;;16.53;41.38;101196.41;4993597;28;20076;-74
2023/05/21 07:16:28;;;;;;;6.70;5.63;;;;;;;16.61;41.22;101199.22;4989166;28;20050;-74
2023/05/21 07:18:57;;;;;;;7.50;5.75;;;;;;;16.66;41.18;101198.72;4998016;28;20508;-74
2023/05/21 07:21:25;;;;;;;8.98;6.45;;;;;;;16.72;40.48;101197.19;4987889;28;20142;-66
2023/05/21 07:23:53;;;;;;;7.53;6.10;;;;;;;16.77;40.82;101197.56;4984930;28;20108;-65
2023/05/21 07:26:21;;;;;;;7.22;5.45;;;;;;;16.83;40.66;101200.50;4999265;28;20145;-65
2023/05/21 07:28:49;;;;;;;7.68;6.45;;;;;;;16.86;40.47;101197.44;4983756;28;20042;-65
2023/05/21 07:31:18;;;;;;;8.00;6.20;;;;;;;16.90;40.41;101203.50;4980402;28;20041;-64
2023/05/21 07:33:49;;;;;;;7.57;5.95;;;;;;;16.98;40.93;101203.56;4988141;28;20501;-65
2023/05/21 07:36:21;;;;;;;8.48;6.30;;;;;;;17.04;40.83;101197.34;4987757;28;20057;-65
2023/05/21 07:38:49;;;;;;;7.20;6.38;;;;;;;17.11;40.66;101200.28;4980337;28;20111;-65
2023/05/21 07:41:17;;;;;;;8.50;5.65;;;;;;;17.18;40.39;101209.66;4984474;28;20064;-65
2023/05/21 07:43:47;;;;;;;6.60;5.25;;;;;;;17.26;40.73;101199.47;4985831;28;20046;-64
2023/05/21 07:46:15;;;;;;;8.13;5.93;;;;;;;17.34;40.58;101201.38;5004303;28;20050;-66
2023/05/21 07:48:45;;;;;;;6.90;6.10;;;;;;;17.43;40.53;101193.97;4992565;28;20046;-64
2023/05/21 07:51:15;;;;;;;8.65;6.60;;;;;;;17.52;40.52;101192.94;4986983;28;20077;-65
2023/05/21 07:53:43;;;;;;;8.13;5.75;;;;;;;17.59;40.39;101196.75;4990945;28;20073;-61
2023/05/21 07:56:14;;;;;;;8.13;6.15;;;;;;;17.65;40.11;101193.28;4989477;28;20148;-63
2023/05/21 07:58:44;;;;;;;7.22;5.63;;;;;;;17.73;39.76;101187.78;4991879;28;20433;-61
2023/05/21 08:01:16;;;;;;;8.20;6.75;;;;;;;17.80;39.63;101188.84;4990953;28;20054;-63
2023/05/21 08:03:44;;;;;;;8.38;6.47;;;;;;;17.86;40.02;101190.91;4991304;28;20128;-62
2023/05/21 08:06:12;;;;;;;8.00;6.80;;;;;;;17.92;39.94;101192.97;4995371;28;20081;-64
2023/05/21 08:08:42;;;;;;;7.00;6.22;;;;;;;18.01;39.46;101191.06;4980720;28;20038;-67
2023/05/21 08:11:10;;;;;;;7.85;5.72;;;;;;;18.06;39.40;101183.94;5018554;28;20099;-63
2023/05/21 08:13:38;;;;;;;7.75;5.93;;;;;;;18.14;39.45;101189.47;4991172;28;20092;-63
2023/05/21 08:16:07;;;;;;;7.55;6.00;;;;;;;18.20;39.65;101190.69;4989480;28;20053;-64
2023/05/21 08:18:35;;;;;;;8.15;6.22;;;;;;;18.27;39.46;101183.38;4987813;28;20776;-64
2023/05/21 08:21:04;;;;;;;7.78;6.13;;;;;;;18.35;39.17;101190.81;4981768;28;20102;-66
2023/05/21 08:23:32;;;;;;;8.30;6.40;;;;;;;18.40;39.05;101192.00;4986389;28;20425;-66
2023/05/21 08:26:01;;;;;;;8.05;6.40;;;;;;;18.48;38.81;101203.09;4987377;28;20063;-64
2023/05/21 08:28:30;;;;;;;8.45;6.65;;;;;;;18.50;38.74;101198.25;4991363;28;20049;-66
2023/05/21 08:31:00;;;;;;;7.97;6.32;;;;;;;18.56;38.98;101202.19;4985644;28;20045;-68
2023/05/21 08:33:30;;;;;;;8.23;7.07;;;;;;;18.60;39.07;101200.81;4983302;28;20046;-66
2023/05/21 08:35:59;;;;;;;8.27;6.82;;;;;;;18.64;38.87;101202.19;5000471;28;20074;-65
2023/05/21 08:38:31;;;;;;;7.03;5.80;;;;;;;18.69;39.09;101194.19;4993651;28;20096;-75
2023/05/21 08:41:12;;;;;;;8.05;6.43;;;;;;;18.76;39.54;101200.75;4985001;28;20396;-74
2023/05/21 08:43:40;;;;;;;8.77;6.80;;;;;;;18.80;39.03;101198.50;4982511;28;20088;-72
2023/05/21 08:46:11;;;;;;;8.63;6.65;;;;;;;18.86;38.78;101193.09;4981251;28;20096;-72
2023/05/21 08:48:40;;;;;;;7.72;6.57;;;;;;;18.90;39.16;101188.03;4977886;28;20053;-73
2023/05/21 08:51:09;;;;;;;8.82;6.70;;;;;;;18.98;38.71;101185.22;4986677;28;20049;-73
2023/05/21 08:53:44;;;;;;;7.57;5.78;;;;;;;19.09;39.09;101182.03;4983407;28;20042;-73
2023/05/21 08:56:17;;;;;;;7.50;6.32;;;;;;;19.18;39.45;101186.50;4977977;28;20073;-73
2023/05/21 08:58:55;;;;;;;9.70;7.35;;;;;;;19.26;39.06;101180.94;4976170;28;20262;-73
2023/05/21 09:01:27;;;;;;;8.77;7.25;;;;;;;19.38;38.85;101180.50;5001588;28;20104;-72
2023/05/21 09:04:03;;;;;;;8.32;7.22;;;;;;;19.48;38.64;101170.00;4979332;28;20038;-73
2023/05/21 09:06:48;;;;;;;7.72;6.63;;;;;;;19.57;38.87;101163.34;4979575;28;20135;-74
2023/05/21 09:09:32;;;;;;;8.75;6.38;;;;;;;19.71;38.25;101170.00;4976148;28;20207;-73
2023/05/21 09:12:02;;;;;;;8.70;6.63;;;;;;;19.80;38.18;101166.09;4978137;28;20243;-73
2023/05/21 09:14:32;;;;;;;9.30;6.95;;;;;;;19.88;38.01;101163.22;4981895;28;20049;-74
2023/05/21 09:17:05;;;;;;;8.82;6.85;;;;;;;19.95;38.14;101158.72;4983223;28;20065;-74
2023/05/21 09:19:33;;;;;;;9.98;7.70;;;;;;;20.04;38.16;101160.31;5003799;28;20224;-72
2023/05/21 09:22:03;;;;;;;10.77;8.07;;;;;;;20.10;38.00;101150.38;4978001;28;20042;-73
2023/05/21 09:24:33;;;;;;;9.10;7.43;;;;;;;20.17;37.66;101152.22;4991394;28;20058;-72
2023/05/21 09:27:08;;;;;;;11.02;7.22;;;;;;;20.25;38.03;101148.47;4979202;28;20469;-74
2023/05/21 09:29:36;;;;;;;8.35;7.03;;;;;;;20.28;37.86;101148.94;5001671;28;20042;-73
2023/05/21 09:32:11;;;;;;;9.48;7.45;;;;;;;20.43;38.04;101146.19;4986694;28;20137;-72
2023/05/21 09:34:39;;;;;;;9.45;7.13;;;;;;;20.50;38.08;101140.72;4989745;28;20491;-74
2023/05/21 09:37:08;;;;;;;8.90;7.45;;;;;;;20.59;37.78;101153.50;4995313;28;20046;-74
2023/05/21 09:42:51;;;;;;;10.63;7.97;;;;;;;20.81;37.32;101149.72;5040396;28;20613;-70
2023/05/21 09:45:20;;;;;;;9.25;7.10;;;;;;;20.88;37.25;101147.00;5039783;28;20103;-69
2023/05/21 09:47:51;;;;;;;9.10;6.95;;;;;;;21.01;36.95;101153.63;5024326;28;20067;-69
2023/05/21 09:50:21;;;;;;;8.27;6.78;;;;;;;21.12;37.45;101147.53;5044996;28;20057;-69
2023/05/21 09:52:51;;;;;;;7.22;6.13;;;;;;;21.23;37.28;101150.84;5046677;28;20128;-70
2023/05/21 09:55:23;;;;;;;8.60;6.82;;;;;;;21.35;37.12;101144.63;5044537;28;20092;-70
2023/05/21 09:57:53;;;;;;;10.20;7.68;;;;;;;21.43;36.95;101144.50;5046932;28;20083;-70
2023/05/21 10:00:22;;;;;;;9.60;8.35;;;;;;;21.51;36.34;101138.78;5047036;28;20282;-70
2023/05/21 10:02:55;;;;;;;9.43;8.05;;;;;;;21.59;35.52;101137.78;5045676;28;20451;-70
2023/05/21 10:05:26;;;;;;;9.07;8.13;;;;;;;21.65;35.59;101141.69;5047160;28;20116;-69
2023/05/21 10:08:00;;;;;;;8.40;7.00;;;;;;;21.70;35.51;101140.00;5044308;28;20075;-70
2023/05/21 10:10:29;;;;;;;8.07;6.68;;;;;;;21.70;35.83;101131.66;5043402;28;20472;-70
2023/05/21 10:13:00;;;;;;;8.82;7.15;;;;;;;21.74;35.64;101134.91;5049585;28;20230;-69
2023/05/21 10:15:32;;;;;;;9.27;8.13;;;;;;;21.76;35.43;101138.34;5046883;28;20044;-70
2023/05/21 10:18:01;;;;;;;8.95;7.40;;;;;;;21.79;35.55;101135.16;5046751;28;20033;-70
2023/05/21 10:20:29;;;;;;;9.65;8.48;;;;;;;21.76;35.14;101132.78;5045580;28;20057;-69
2023/05/21 10:22:58;;;;;;;10.10;8.73;;;;;;;21.78;35.09;101130.63;5047054;28;20055;-69
2023/05/21 10:25:28;;;;;;;9.50;8.23;;;;;;;21.77;35.16;101123.34;5046890;28;20511;-69
2023/05/21 10:27:57;;;;;;;10.13;8.05;;;;;;;21.73;34.93;101125.69;5045340;28;20052;-70
2023/05/21 10:30:27;;;;;;;9.82;7.97;;;;;;;21.74;35.11;101134.91;5041392;28;20534;-69
2023/05/21 10:32:56;;;;;;;9.80;7.82;;;;;;;21.72;34.97;101135.09;5046637;28;20041;-70
2023/05/21 10:35:24;;;;;;;8.85;7.95;;;;;;;21.71;35.63;101118.59;5045661;28;20060;-70
2023/05/21 10:37:54;;;;;;;8.93;7.75;;;;;;;21.72;35.55;101118.38;5045018;28;20383;-69
2023/05/21 10:40:22;;;;;;;10.50;7.95;;;;;;;21.74;35.58;101119.06;5044510;28;20079;-70
2023/05/21 10:43:11;;;;;;;9.40;7.40;;;;;;;21.81;35.66;101110.75;5047444;28;20407;-69
2023/05/21 10:45:58;;;;;;;8.57;6.53;;;;;;;21.87;35.68;101104.34;5044333;28;20052;-69
2023/05/21 10:48:42;;;;;;;9.20;7.65;;;;;;;21.96;36.03;101096.72;5045693;28;20377;-70
2023/05/21 10:51:20;;;;;;;9.13;7.72;;;;;;;22.06;35.78;101097.25;5046318;28;20095;-70
2023/05/21 10:54:00;;;;;;;10.00;7.80;;;;;;;22.16;35.41;101094.97;5047241;28;20037;-70
2023/05/21 10:56:32;;;;;;;9.43;7.57;;;;;;;22.27;35.84;101094.34;5050358;28;20450;-70
2023/05/21 10:59:14;;;;;;;10.80;8.52;;;;;;;22.37;34.70;101092.06;5044480;28;20045;-69
2023/05/21 11:01:44;;;;;;;11.13;8.70;;;;;;;22.46;35.25;101084.38;5044474;28;20144;-70
2023/05/21 11:04:14;;;;;;;9.55;7.80;;;;;;;22.54;35.20;101090.69;5046474;28;20037;-69
2023/05/21 11:06:47;;;;;;;10.00;7.50;;;;;;;22.66;35.00;101090.97;5045169;28;20106;-69
2023/05/21 11:09:15;;;;;;;9.55;8.27;;;;;;;22.71;34.81;101081.94;5045169;28;20049;-70
2023/05/21 11:11:45;;;;;;;8.60;7.40;;;;;;;22.79;34.95;101091.00;5043557;28;20404;-70
2023/05/21 11:14:34;;;;;;;10.10;7.85;;;;;;;22.85;34.32;101090.16;5025783;28;20382;-70
2023/05/21 11:17:10;;;;;;;10.45;8.63;;;;;;;22.92;34.54;101091.03;5043635;28;20045;-70
2023/05/21 11:19:40;;;;;;;10.15;8.35;;;;;;;22.99;34.82;101079.91;5046014;28;20099;-72
2023/05/21 11:22:10;;;;;;;9.60;7.80;;;;;;;23.06;34.71;101074.34;5044806;28;20135;-70
2023/05/21 11:24:40;;;;;;;9.70;7.90;;;;;;;23.12;34.66;101077.13;5045047;28;20332;-70
2023/05/21 11:27:08;;;;;;;9.25;7.85;;;;;;;23.17;34.40;101074.59;5045139;28;20582;-70
2023/05/21 11:29:40;;;;;;;9.40;8.10;;;;;;;23.25;34.39;101076.34;5044852;28;20041;-70
2023/05/21 11:32:11;;;;;;;9.13;8.20;;;;;;;23.29;34.24;101080.41;5038300;28;20445;-69
2023/05/21 11:34:44;;;;;;;9.55;7.60;;;;;;;23.36;34.10;101068.16;5044708;28;20037;-72
2023/05/21 11:37:28;;;;;;;9.40;7.88;;;;;;;23.41;34.03;101070.34;5042586;28;20149;-69
2023/05/21 11:39:58;;;;;;;10.95;8.93;;;;;;;23.44;33.94;101069.88;5043635;28;20049;-69